sensor_id;sensor_type;location;lat;lon;timestamp;P1;durP1;ratioP1;P2;durP2;ratioP2
47335;SDS011;33068;51.990;5.926;2022-12-10T00:01:59;79.47;;;31.08;;
47335;SDS011;33068;51.990;5.926;2022-12-10T00:04:26;82.82;;;31.08;;
47335;SDS011;33068;51.990;5.926;2022-12-10T00:06:53;87.28;;;31.02;;
47335;SDS011;33068;51.990;5.926;2022-12-10T00:09:21;78.70;;;29.42;;
47335;SDS011;33068;51.990;5.926;2022-12-10T00:11:48;79.45;;;27.77;;
47335;SDS011;33068;51.990;5.926;2022-12-10T00:14:15;82.43;;;31.08;;
47335;SDS011;33068;51.990;5.926;2022-12-10T00:16:44;83.25;;;30.70;;
47335;SDS011;33068;51.990;5.926;2022-12-10T00:19:11;77.05;;;28.70;;
47335;SDS011;33068;51.990;5.926;2022-12-10T00:21:38;79.20;;;29.50;;
47335;SDS011;33068;51.990;5.926;2022-12-10T00:24:06;81.15;;;29.55;;
47335;SDS011;33068;51.990;5.926;2022-12-10T00:26:34;74.30;;;27.92;;
47335;SDS011;33068;51.990;5.926;2022-12-10T00:29:04;66.90;;;27.90;;
47335;SDS011;33068;51.990;5.926;2022-12-10T00:31:33;82.43;;;29.55;;
47335;SDS011;33068;51.990;5.926;2022-12-10T00:34:03;78.85;;;29.48;;
47335;SDS011;33068;51.990;5.926;2022-12-10T00:36:32;74.78;;;28.02;;
47335;SDS011;33068;51.990;5.926;2022-12-10T00:39:01;80.88;;;30.27;;
47335;SDS011;33068;51.990;5.926;2022-12-10T00:41:29;76.72;;;27.88;;
47335;SDS011;33068;51.990;5.926;2022-12-10T00:43:57;79.50;;;27.92;;
47335;SDS011;33068;51.990;5.926;2022-12-10T00:46:24;77.57;;;28.10;;
47335;SDS011;33068;51.990;5.926;2022-12-10T00:48:51;80.90;;;30.95;;
47335;SDS011;33068;51.990;5.926;2022-12-10T00:51:20;75.45;;;29.02;;
47335;SDS011;33068;51.990;5.926;2022-12-10T00:53:48;80.50;;;28.73;;
47335;SDS011;33068;51.990;5.926;2022-12-10T00:56:21;80.22;;;27.80;;
47335;SDS011;33068;51.990;5.926;2022-12-10T00:58:49;72.53;;;28.08;;
47335;SDS011;33068;51.990;5.926;2022-12-10T01:01:18;77.60;;;30.70;;
47335;SDS011;33068;51.990;5.926;2022-12-10T01:03:49;76.78;;;28.35;;
47335;SDS011;33068;51.990;5.926;2022-12-10T01:06:20;73.90;;;27.77;;
47335;SDS011;33068;51.990;5.926;2022-12-10T01:08:49;78.80;;;28.98;;
47335;SDS011;33068;51.990;5.926;2022-12-10T01:11:18;75.85;;;28.55;;
47335;SDS011;33068;51.990;5.926;2022-12-10T01:13:47;86.78;;;29.05;;
47335;SDS011;33068;51.990;5.926;2022-12-10T01:16:16;74.60;;;27.95;;
47335;SDS011;33068;51.990;5.926;2022-12-10T01:18:44;67.93;;;28.38;;
47335;SDS011;33068;51.990;5.926;2022-12-10T01:21:13;77.05;;;30.73;;
47335;SDS011;33068;51.990;5.926;2022-12-10T01:23:44;78.43;;;29.20;;
47335;SDS011;33068;51.990;5.926;2022-12-10T01:26:14;75.93;;;28.48;;
47335;SDS011;33068;51.990;5.926;2022-12-10T01:28:42;79.93;;;29.48;;
47335;SDS011;33068;51.990;5.926;2022-12-10T01:31:11;72.13;;;28.00;;
47335;SDS011;33068;51.990;5.926;2022-12-10T01:33:40;69.57;;;27.23;;
47335;SDS011;33068;51.990;5.926;2022-12-10T01:36:09;78.68;;;30.08;;
47335;SDS011;33068;51.990;5.926;2022-12-10T01:38:43;77.35;;;30.45;;
47335;SDS011;33068;51.990;5.926;2022-12-10T01:41:13;80.72;;;27.92;;
47335;SDS011;33068;51.990;5.926;2022-12-10T01:43:50;76.78;;;28.77;;
47335;SDS011;33068;51.990;5.926;2022-12-10T01:46:19;70.88;;;27.25;;
47335;SDS011;33068;51.990;5.926;2022-12-10T01:48:48;80.03;;;30.23;;
47335;SDS011;33068;51.990;5.926;2022-12-10T01:51:18;84.43;;;29.73;;
47335;SDS011;33068;51.990;5.926;2022-12-10T01:53:47;78.82;;;29.52;;
47335;SDS011;33068;51.990;5.926;2022-12-10T01:56:16;84.00;;;29.75;;
47335;SDS011;33068;51.990;5.926;2022-12-10T01:58:52;66.22;;;26.67;;
47335;SDS011;33068;51.990;5.926;2022-12-10T02:01:24;74.88;;;28.13;;
47335;SDS011;33068;51.990;5.926;2022-12-10T02:03:56;81.60;;;29.30;;
47335;SDS011;33068;51.990;5.926;2022-12-10T02:06:37;72.45;;;28.00;;
47335;SDS011;33068;51.990;5.926;2022-12-10T02:09:15;73.07;;;29.50;;
47335;SDS011;33068;51.990;5.926;2022-12-10T02:11:51;74.28;;;29.70;;
47335;SDS011;33068;51.990;5.926;2022-12-10T02:14:28;80.57;;;30.05;;
47335;SDS011;33068;51.990;5.926;2022-12-10T02:17:02;88.22;;;30.90;;
47335;SDS011;33068;51.990;5.926;2022-12-10T02:19:45;69.88;;;27.70;;
47335;SDS011;33068;51.990;5.926;2022-12-10T02:22:30;82.05;;;29.75;;
47335;SDS011;33068;51.990;5.926;2022-12-10T02:25:02;75.65;;;28.13;;
47335;SDS011;33068;51.990;5.926;2022-12-10T02:27:49;79.40;;;30.33;;
47335;SDS011;33068;51.990;5.926;2022-12-10T02:30:25;75.03;;;28.27;;
47335;SDS011;33068;51.990;5.926;2022-12-10T02:32:53;83.38;;;32.03;;
47335;SDS011;33068;51.990;5.926;2022-12-10T02:35:23;82.43;;;28.50;;
47335;SDS011;33068;51.990;5.926;2022-12-10T02:37:55;86.35;;;31.50;;
47335;SDS011;33068;51.990;5.926;2022-12-10T02:40:30;73.85;;;29.85;;
47335;SDS011;33068;51.990;5.926;2022-12-10T02:43:01;78.75;;;30.20;;
47335;SDS011;33068;51.990;5.926;2022-12-10T02:45:30;76.07;;;28.88;;
47335;SDS011;33068;51.990;5.926;2022-12-10T02:48:00;82.65;;;29.67;;
47335;SDS011;33068;51.990;5.926;2022-12-10T02:50:38;86.28;;;29.98;;
47335;SDS011;33068;51.990;5.926;2022-12-10T02:53:05;85.75;;;31.55;;
47335;SDS011;33068;51.990;5.926;2022-12-10T02:55:37;84.25;;;30.42;;
47335;SDS011;33068;51.990;5.926;2022-12-10T02:58:18;82.05;;;30.15;;
47335;SDS011;33068;51.990;5.926;2022-12-10T03:00:54;71.97;;;29.50;;
47335;SDS011;33068;51.990;5.926;2022-12-10T03:03:32;81.97;;;30.75;;
47335;SDS011;33068;51.990;5.926;2022-12-10T03:06:06;71.53;;;29.50;;
47335;SDS011;33068;51.990;5.926;2022-12-10T03:08:39;79.75;;;30.30;;
47335;SDS011;33068;51.990;5.926;2022-12-10T03:11:13;86.18;;;32.47;;
47335;SDS011;33068;51.990;5.926;2022-12-10T03:13:43;77.65;;;31.17;;
47335;SDS011;33068;51.990;5.926;2022-12-10T03:16:19;73.95;;;29.15;;
47335;SDS011;33068;51.990;5.926;2022-12-10T03:18:55;84.78;;;32.63;;
47335;SDS011;33068;51.990;5.926;2022-12-10T03:21:24;80.80;;;29.65;;
47335;SDS011;33068;51.990;5.926;2022-12-10T03:23:54;82.85;;;31.65;;
47335;SDS011;33068;51.990;5.926;2022-12-10T03:26:22;92.32;;;31.92;;
47335;SDS011;33068;51.990;5.926;2022-12-10T03:28:50;86.35;;;35.28;;
47335;SDS011;33068;51.990;5.926;2022-12-10T03:31:22;87.18;;;32.08;;
47335;SDS011;33068;51.990;5.926;2022-12-10T03:33:49;82.97;;;30.38;;
47335;SDS011;33068;51.990;5.926;2022-12-10T03:36:19;89.40;;;31.40;;
47335;SDS011;33068;51.990;5.926;2022-12-10T03:38:47;91.05;;;31.77;;
47335;SDS011;33068;51.990;5.926;2022-12-10T03:41:15;78.47;;;31.20;;
47335;SDS011;33068;51.990;5.926;2022-12-10T03:43:52;83.72;;;30.90;;
47335;SDS011;33068;51.990;5.926;2022-12-10T03:46:21;73.53;;;30.45;;
47335;SDS011;33068;51.990;5.926;2022-12-10T03:48:49;81.65;;;31.85;;
47335;SDS011;33068;51.990;5.926;2022-12-10T03:51:17;90.80;;;32.35;;
47335;SDS011;33068;51.990;5.926;2022-12-10T03:53:44;81.80;;;31.67;;
47335;SDS011;33068;51.990;5.926;2022-12-10T03:56:14;88.10;;;32.17;;
47335;SDS011;33068;51.990;5.926;2022-12-10T03:58:41;83.15;;;32.10;;
47335;SDS011;33068;51.990;5.926;2022-12-10T04:01:08;86.90;;;31.85;;
47335;SDS011;33068;51.990;5.926;2022-12-10T04:03:37;78.32;;;32.03;;
47335;SDS011;33068;51.990;5.926;2022-12-10T04:06:07;83.63;;;33.83;;
47335;SDS011;33068;51.990;5.926;2022-12-10T04:08:36;82.50;;;31.70;;
47335;SDS011;33068;51.990;5.926;2022-12-10T04:11:03;82.63;;;32.92;;
47335;SDS011;33068;51.990;5.926;2022-12-10T04:13:32;91.97;;;32.08;;
47335;SDS011;33068;51.990;5.926;2022-12-10T04:16:17;87.93;;;31.95;;
47335;SDS011;33068;51.990;5.926;2022-12-10T04:18:55;81.80;;;32.20;;
47335;SDS011;33068;51.990;5.926;2022-12-10T04:21:23;85.93;;;33.53;;
47335;SDS011;33068;51.990;5.926;2022-12-10T04:24:08;89.80;;;33.13;;
47335;SDS011;33068;51.990;5.926;2022-12-10T04:26:54;81.13;;;32.42;;
47335;SDS011;33068;51.990;5.926;2022-12-10T04:29:22;92.20;;;34.47;;
47335;SDS011;33068;51.990;5.926;2022-12-10T04:31:50;93.72;;;31.15;;
47335;SDS011;33068;51.990;5.926;2022-12-10T04:34:19;94.65;;;34.35;;
47335;SDS011;33068;51.990;5.926;2022-12-10T04:36:47;108.95;;;36.75;;
47335;SDS011;33068;51.990;5.926;2022-12-10T04:39:15;109.95;;;37.13;;
47335;SDS011;33068;51.990;5.926;2022-12-10T04:41:43;99.55;;;37.83;;
47335;SDS011;33068;51.990;5.926;2022-12-10T04:44:12;101.97;;;35.33;;
47335;SDS011;33068;51.990;5.926;2022-12-10T04:46:40;120.03;;;39.13;;
47335;SDS011;33068;51.990;5.926;2022-12-10T04:49:07;116.25;;;37.72;;
47335;SDS011;33068;51.990;5.926;2022-12-10T04:51:36;111.50;;;37.15;;
47335;SDS011;33068;51.990;5.926;2022-12-10T04:54:04;113.70;;;39.90;;
47335;SDS011;33068;51.990;5.926;2022-12-10T04:56:32;98.60;;;36.00;;
47335;SDS011;33068;51.990;5.926;2022-12-10T04:59:00;115.47;;;38.75;;
47335;SDS011;33068;51.990;5.926;2022-12-10T05:01:28;109.25;;;38.83;;
47335;SDS011;33068;51.990;5.926;2022-12-10T05:03:57;102.15;;;36.90;;
47335;SDS011;33068;51.990;5.926;2022-12-10T05:06:25;118.82;;;39.00;;
47335;SDS011;33068;51.990;5.926;2022-12-10T05:08:53;113.03;;;39.90;;
47335;SDS011;33068;51.990;5.926;2022-12-10T05:11:24;118.55;;;40.35;;
47335;SDS011;33068;51.990;5.926;2022-12-10T05:13:53;125.28;;;41.30;;
47335;SDS011;33068;51.990;5.926;2022-12-10T05:16:22;123.15;;;40.10;;
47335;SDS011;33068;51.990;5.926;2022-12-10T05:18:52;125.45;;;40.30;;
47335;SDS011;33068;51.990;5.926;2022-12-10T05:21:20;118.60;;;39.58;;
47335;SDS011;33068;51.990;5.926;2022-12-10T05:23:49;131.85;;;40.15;;
47335;SDS011;33068;51.990;5.926;2022-12-10T05:26:18;129.07;;;39.67;;
47335;SDS011;33068;51.990;5.926;2022-12-10T05:28:48;131.13;;;41.60;;
47335;SDS011;33068;51.990;5.926;2022-12-10T05:31:18;134.32;;;42.92;;
47335;SDS011;33068;51.990;5.926;2022-12-10T05:33:47;135.88;;;41.90;;
47335;SDS011;33068;51.990;5.926;2022-12-10T05:36:15;136.48;;;43.83;;
47335;SDS011;33068;51.990;5.926;2022-12-10T05:38:43;145.65;;;42.88;;
47335;SDS011;33068;51.990;5.926;2022-12-10T05:41:12;132.02;;;41.83;;
47335;SDS011;33068;51.990;5.926;2022-12-10T05:43:42;136.27;;;40.90;;
47335;SDS011;33068;51.990;5.926;2022-12-10T05:46:11;127.75;;;42.10;;
47335;SDS011;33068;51.990;5.926;2022-12-10T05:48:39;156.57;;;45.15;;
47335;SDS011;33068;51.990;5.926;2022-12-10T05:51:07;157.88;;;45.50;;
47335;SDS011;33068;51.990;5.926;2022-12-10T05:53:35;146.63;;;42.90;;
47335;SDS011;33068;51.990;5.926;2022-12-10T05:56:03;133.90;;;43.70;;
47335;SDS011;33068;51.990;5.926;2022-12-10T05:58:32;156.52;;;44.00;;
47335;SDS011;33068;51.990;5.926;2022-12-10T06:01:05;205.40;;;47.17;;
47335;SDS011;33068;51.990;5.926;2022-12-10T06:03:33;189.85;;;44.58;;
47335;SDS011;33068;51.990;5.926;2022-12-10T06:06:01;145.57;;;43.78;;
47335;SDS011;33068;51.990;5.926;2022-12-10T06:08:29;182.25;;;45.38;;
47335;SDS011;33068;51.990;5.926;2022-12-10T06:10:56;190.65;;;46.25;;
47335;SDS011;33068;51.990;5.926;2022-12-10T06:13:26;165.10;;;45.63;;
47335;SDS011;33068;51.990;5.926;2022-12-10T06:15:54;146.18;;;44.90;;
47335;SDS011;33068;51.990;5.926;2022-12-10T06:18:22;192.20;;;42.60;;
47335;SDS011;33068;51.990;5.926;2022-12-10T06:20:50;159.90;;;42.13;;
47335;SDS011;33068;51.990;5.926;2022-12-10T06:23:17;186.80;;;43.03;;
47335;SDS011;33068;51.990;5.926;2022-12-10T06:25:44;166.35;;;44.40;;
47335;SDS011;33068;51.990;5.926;2022-12-10T06:28:12;196.25;;;45.15;;
47335;SDS011;33068;51.990;5.926;2022-12-10T06:30:39;173.85;;;44.58;;
47335;SDS011;33068;51.990;5.926;2022-12-10T06:33:06;191.93;;;45.83;;
47335;SDS011;33068;51.990;5.926;2022-12-10T06:35:34;174.55;;;48.00;;
47335;SDS011;33068;51.990;5.926;2022-12-10T06:38:04;170.95;;;41.22;;
47335;SDS011;33068;51.990;5.926;2022-12-10T06:40:31;155.15;;;43.83;;
47335;SDS011;33068;51.990;5.926;2022-12-10T06:42:58;144.23;;;43.22;;
47335;SDS011;33068;51.990;5.926;2022-12-10T06:45:25;210.75;;;44.75;;
47335;SDS011;33068;51.990;5.926;2022-12-10T06:47:53;177.10;;;47.38;;
47335;SDS011;33068;51.990;5.926;2022-12-10T06:50:19;164.48;;;43.45;;
47335;SDS011;33068;51.990;5.926;2022-12-10T06:52:48;154.88;;;43.30;;
47335;SDS011;33068;51.990;5.926;2022-12-10T06:55:16;150.88;;;46.05;;
47335;SDS011;33068;51.990;5.926;2022-12-10T06:57:43;167.35;;;44.70;;
47335;SDS011;33068;51.990;5.926;2022-12-10T07:00:10;159.13;;;45.95;;
47335;SDS011;33068;51.990;5.926;2022-12-10T07:02:39;165.60;;;45.90;;
47335;SDS011;33068;51.990;5.926;2022-12-10T07:05:06;180.40;;;56.65;;
47335;SDS011;33068;51.990;5.926;2022-12-10T07:07:34;153.35;;;44.90;;
47335;SDS011;33068;51.990;5.926;2022-12-10T07:10:04;139.73;;;43.72;;
47335;SDS011;33068;51.990;5.926;2022-12-10T07:12:32;160.32;;;45.28;;
47335;SDS011;33068;51.990;5.926;2022-12-10T07:14:59;207.60;;;43.08;;
47335;SDS011;33068;51.990;5.926;2022-12-10T07:17:26;177.65;;;45.75;;
47335;SDS011;33068;51.990;5.926;2022-12-10T07:19:53;160.85;;;42.75;;
47335;SDS011;33068;51.990;5.926;2022-12-10T07:22:20;174.20;;;42.63;;
47335;SDS011;33068;51.990;5.926;2022-12-10T07:24:48;144.10;;;41.53;;
47335;SDS011;33068;51.990;5.926;2022-12-10T07:27:17;164.45;;;45.75;;
47335;SDS011;33068;51.990;5.926;2022-12-10T07:29:44;178.35;;;47.10;;
47335;SDS011;33068;51.990;5.926;2022-12-10T07:32:11;223.00;;;45.33;;
47335;SDS011;33068;51.990;5.926;2022-12-10T07:34:38;152.40;;;41.97;;
47335;SDS011;33068;51.990;5.926;2022-12-10T07:37:06;166.15;;;45.83;;
47335;SDS011;33068;51.990;5.926;2022-12-10T07:39:33;173.68;;;46.05;;
47335;SDS011;33068;51.990;5.926;2022-12-10T07:42:00;169.80;;;43.20;;
47335;SDS011;33068;51.990;5.926;2022-12-10T07:44:29;163.07;;;42.95;;
47335;SDS011;33068;51.990;5.926;2022-12-10T07:46:56;160.43;;;42.38;;
47335;SDS011;33068;51.990;5.926;2022-12-10T07:49:23;158.82;;;43.47;;
47335;SDS011;33068;51.990;5.926;2022-12-10T07:51:51;159.77;;;39.75;;
47335;SDS011;33068;51.990;5.926;2022-12-10T07:54:18;153.55;;;41.28;;
47335;SDS011;33068;51.990;5.926;2022-12-10T07:56:45;163.68;;;40.95;;
47335;SDS011;33068;51.990;5.926;2022-12-10T07:59:12;138.90;;;40.08;;
47335;SDS011;33068;51.990;5.926;2022-12-10T08:01:41;133.73;;;40.70;;
47335;SDS011;33068;51.990;5.926;2022-12-10T08:04:08;148.45;;;42.38;;
47335;SDS011;33068;51.990;5.926;2022-12-10T08:06:35;156.25;;;44.72;;
47335;SDS011;33068;51.990;5.926;2022-12-10T08:09:02;172.65;;;44.22;;
47335;SDS011;33068;51.990;5.926;2022-12-10T08:11:29;147.38;;;40.38;;
47335;SDS011;33068;51.990;5.926;2022-12-10T08:13:57;163.05;;;43.95;;
47335;SDS011;33068;51.990;5.926;2022-12-10T08:16:26;151.15;;;40.92;;
47335;SDS011;33068;51.990;5.926;2022-12-10T08:18:56;133.90;;;40.58;;
47335;SDS011;33068;51.990;5.926;2022-12-10T08:21:25;169.40;;;40.50;;
47335;SDS011;33068;51.990;5.926;2022-12-10T08:23:54;159.95;;;40.50;;
47335;SDS011;33068;51.990;5.926;2022-12-10T08:26:23;160.48;;;40.05;;
47335;SDS011;33068;51.990;5.926;2022-12-10T08:28:52;160.23;;;42.50;;
47335;SDS011;33068;51.990;5.926;2022-12-10T08:31:21;184.00;;;41.70;;
47335;SDS011;33068;51.990;5.926;2022-12-10T08:33:49;155.88;;;40.33;;
47335;SDS011;33068;51.990;5.926;2022-12-10T08:36:18;163.40;;;40.17;;
47335;SDS011;33068;51.990;5.926;2022-12-10T08:38:45;168.98;;;37.33;;
47335;SDS011;33068;51.990;5.926;2022-12-10T08:41:13;166.13;;;40.20;;
47335;SDS011;33068;51.990;5.926;2022-12-10T08:43:42;154.07;;;37.30;;
47335;SDS011;33068;51.990;5.926;2022-12-10T08:46:10;166.20;;;39.08;;
47335;SDS011;33068;51.990;5.926;2022-12-10T08:48:39;146.07;;;37.08;;
47335;SDS011;33068;51.990;5.926;2022-12-10T08:51:07;137.85;;;36.58;;
47335;SDS011;33068;51.990;5.926;2022-12-10T08:53:37;145.32;;;37.92;;
47335;SDS011;33068;51.990;5.926;2022-12-10T08:56:04;195.70;;;40.78;;
47335;SDS011;33068;51.990;5.926;2022-12-10T08:58:31;177.27;;;40.38;;
47335;SDS011;33068;51.990;5.926;2022-12-10T09:00:58;173.30;;;38.30;;
47335;SDS011;33068;51.990;5.926;2022-12-10T09:03:26;143.75;;;37.65;;
47335;SDS011;33068;51.990;5.926;2022-12-10T09:05:53;124.82;;;34.80;;
47335;SDS011;33068;51.990;5.926;2022-12-10T09:08:21;132.13;;;36.45;;
47335;SDS011;33068;51.990;5.926;2022-12-10T09:10:49;163.85;;;37.30;;
47335;SDS011;33068;51.990;5.926;2022-12-10T09:13:16;188.75;;;38.08;;
47335;SDS011;33068;51.990;5.926;2022-12-10T09:15:48;137.82;;;35.85;;
47335;SDS011;33068;51.990;5.926;2022-12-10T09:18:17;147.52;;;36.92;;
47335;SDS011;33068;51.990;5.926;2022-12-10T09:20:44;182.18;;;37.85;;
47335;SDS011;33068;51.990;5.926;2022-12-10T09:23:12;152.85;;;36.33;;
47335;SDS011;33068;51.990;5.926;2022-12-10T09:25:39;142.00;;;34.45;;
47335;SDS011;33068;51.990;5.926;2022-12-10T09:28:09;137.27;;;37.90;;
47335;SDS011;33068;51.990;5.926;2022-12-10T09:30:36;153.13;;;36.70;;
47335;SDS011;33068;51.990;5.926;2022-12-10T09:33:03;140.30;;;34.22;;
47335;SDS011;33068;51.990;5.926;2022-12-10T09:35:30;141.20;;;35.88;;
47335;SDS011;33068;51.990;5.926;2022-12-10T09:37:58;144.85;;;37.13;;
47335;SDS011;33068;51.990;5.926;2022-12-10T09:40:29;167.70;;;39.08;;
47335;SDS011;33068;51.990;5.926;2022-12-10T09:45:36;139.63;;;33.63;;
47335;SDS011;33068;51.990;5.926;2022-12-10T09:48:13;163.93;;;35.33;;
47335;SDS011;33068;51.990;5.926;2022-12-10T09:50:49;136.95;;;35.38;;
47335;SDS011;33068;51.990;5.926;2022-12-10T09:53:22;149.88;;;35.90;;
47335;SDS011;33068;51.990;5.926;2022-12-10T09:55:51;167.48;;;36.55;;
47335;SDS011;33068;51.990;5.926;2022-12-10T09:58:19;135.10;;;33.72;;
47335;SDS011;33068;51.990;5.926;2022-12-10T10:00:51;137.65;;;33.60;;
47335;SDS011;33068;51.990;5.926;2022-12-10T10:03:23;156.43;;;36.58;;
47335;SDS011;33068;51.990;5.926;2022-12-10T10:05:51;152.88;;;35.00;;
47335;SDS011;33068;51.990;5.926;2022-12-10T10:08:22;154.02;;;37.25;;
47335;SDS011;33068;51.990;5.926;2022-12-10T10:10:54;153.35;;;37.80;;
47335;SDS011;33068;51.990;5.926;2022-12-10T10:13:25;140.43;;;33.97;;
47335;SDS011;33068;51.990;5.926;2022-12-10T10:15:58;144.75;;;34.50;;
47335;SDS011;33068;51.990;5.926;2022-12-10T10:18:43;157.18;;;36.85;;
47335;SDS011;33068;51.990;5.926;2022-12-10T10:21:16;161.27;;;37.03;;
47335;SDS011;33068;51.990;5.926;2022-12-10T10:23:49;168.93;;;35.20;;
47335;SDS011;33068;51.990;5.926;2022-12-10T10:26:17;164.50;;;37.20;;
47335;SDS011;33068;51.990;5.926;2022-12-10T10:28:44;159.30;;;36.10;;
47335;SDS011;33068;51.990;5.926;2022-12-10T10:31:18;151.95;;;34.78;;
47335;SDS011;33068;51.990;5.926;2022-12-10T10:33:48;152.48;;;35.42;;
47335;SDS011;33068;51.990;5.926;2022-12-10T10:36:25;141.27;;;35.55;;
47335;SDS011;33068;51.990;5.926;2022-12-10T10:38:53;134.90;;;31.58;;
47335;SDS011;33068;51.990;5.926;2022-12-10T10:41:22;153.35;;;34.05;;
47335;SDS011;33068;51.990;5.926;2022-12-10T10:43:51;159.13;;;38.05;;
47335;SDS011;33068;51.990;5.926;2022-12-10T10:46:27;151.23;;;36.08;;
47335;SDS011;33068;51.990;5.926;2022-12-10T10:49:11;168.27;;;35.30;;
47335;SDS011;33068;51.990;5.926;2022-12-10T10:51:45;155.32;;;37.42;;
47335;SDS011;33068;51.990;5.926;2022-12-10T10:54:12;150.40;;;35.28;;
47335;SDS011;33068;51.990;5.926;2022-12-10T10:57:00;145.13;;;33.92;;
47335;SDS011;33068;51.990;5.926;2022-12-10T10:59:30;162.20;;;34.40;;
47335;SDS011;33068;51.990;5.926;2022-12-10T11:02:02;126.18;;;32.47;;
47335;SDS011;33068;51.990;5.926;2022-12-10T11:04:44;135.10;;;34.28;;
47335;SDS011;33068;51.990;5.926;2022-12-10T11:07:16;128.57;;;30.45;;
47335;SDS011;33068;51.990;5.926;2022-12-10T11:09:48;132.77;;;32.70;;
47335;SDS011;33068;51.990;5.926;2022-12-10T11:12:35;133.75;;;33.13;;
47335;SDS011;33068;51.990;5.926;2022-12-10T11:18:00;139.25;;;33.10;;
47335;SDS011;33068;51.990;5.926;2022-12-10T11:20:31;135.75;;;31.70;;
47335;SDS011;33068;51.990;5.926;2022-12-10T11:23:00;144.25;;;33.28;;
47335;SDS011;33068;51.990;5.926;2022-12-10T11:25:33;121.43;;;31.23;;
47335;SDS011;33068;51.990;5.926;2022-12-10T11:28:12;152.25;;;33.08;;
47335;SDS011;33068;51.990;5.926;2022-12-10T11:30:56;138.18;;;34.40;;
47335;SDS011;33068;51.990;5.926;2022-12-10T11:33:38;121.75;;;33.15;;
47335;SDS011;33068;51.990;5.926;2022-12-10T11:36:16;137.38;;;31.77;;
47335;SDS011;33068;51.990;5.926;2022-12-10T11:38:58;111.40;;;31.38;;
47335;SDS011;33068;51.990;5.926;2022-12-10T11:41:36;125.78;;;31.25;;
47335;SDS011;33068;51.990;5.926;2022-12-10T11:44:16;110.18;;;28.58;;
47335;SDS011;33068;51.990;5.926;2022-12-10T11:46:56;120.63;;;30.48;;
47335;SDS011;33068;51.990;5.926;2022-12-10T11:49:47;147.27;;;32.63;;
47335;SDS011;33068;51.990;5.926;2022-12-10T11:52:26;125.68;;;32.13;;
47335;SDS011;33068;51.990;5.926;2022-12-10T11:55:07;122.15;;;31.40;;
47335;SDS011;33068;51.990;5.926;2022-12-10T11:57:46;124.85;;;32.22;;
47335;SDS011;33068;51.990;5.926;2022-12-10T12:00:21;140.43;;;31.55;;
47335;SDS011;33068;51.990;5.926;2022-12-10T12:05:48;132.43;;;30.33;;
47335;SDS011;33068;51.990;5.926;2022-12-10T12:08:26;124.90;;;31.48;;
47335;SDS011;33068;51.990;5.926;2022-12-10T12:11:08;131.25;;;32.33;;
47335;SDS011;33068;51.990;5.926;2022-12-10T12:13:53;111.45;;;29.05;;
47335;SDS011;33068;51.990;5.926;2022-12-10T12:16:26;120.93;;;30.83;;
47335;SDS011;33068;51.990;5.926;2022-12-10T12:18:59;108.43;;;28.02;;
47335;SDS011;33068;51.990;5.926;2022-12-10T12:21:30;117.30;;;29.92;;
47335;SDS011;33068;51.990;5.926;2022-12-10T12:23:58;117.75;;;29.95;;
47335;SDS011;33068;51.990;5.926;2022-12-10T12:26:29;121.45;;;29.52;;
47335;SDS011;33068;51.990;5.926;2022-12-10T12:29:01;104.38;;;27.58;;
47335;SDS011;33068;51.990;5.926;2022-12-10T12:31:38;118.13;;;28.42;;
47335;SDS011;33068;51.990;5.926;2022-12-10T12:34:11;115.55;;;28.48;;
47335;SDS011;33068;51.990;5.926;2022-12-10T12:36:45;132.55;;;27.58;;
47335;SDS011;33068;51.990;5.926;2022-12-10T12:39:16;138.27;;;29.73;;
47335;SDS011;33068;51.990;5.926;2022-12-10T12:41:48;126.35;;;31.17;;
47335;SDS011;33068;51.990;5.926;2022-12-10T12:44:22;152.88;;;31.58;;
47335;SDS011;33068;51.990;5.926;2022-12-10T12:46:56;130.05;;;29.30;;
47335;SDS011;33068;51.990;5.926;2022-12-10T12:49:28;124.80;;;29.63;;
47335;SDS011;33068;51.990;5.926;2022-12-10T12:52:01;131.15;;;29.58;;
47335;SDS011;33068;51.990;5.926;2022-12-10T12:54:40;129.15;;;29.42;;
47335;SDS011;33068;51.990;5.926;2022-12-10T12:57:08;128.40;;;31.85;;
47335;SDS011;33068;51.990;5.926;2022-12-10T12:59:51;136.48;;;31.25;;
47335;SDS011;33068;51.990;5.926;2022-12-10T13:02:42;126.05;;;29.30;;
47335;SDS011;33068;51.990;5.926;2022-12-10T13:05:20;140.32;;;29.63;;
47335;SDS011;33068;51.990;5.926;2022-12-10T13:10:56;123.55;;;28.52;;
47335;SDS011;33068;51.990;5.926;2022-12-10T13:13:29;105.50;;;29.13;;
47335;SDS011;33068;51.990;5.926;2022-12-10T13:21:55;115.55;;;31.33;;
47335;SDS011;33068;51.990;5.926;2022-12-10T13:24:46;121.20;;;29.60;;
47335;SDS011;33068;51.990;5.926;2022-12-10T13:27:29;121.60;;;30.15;;
47335;SDS011;33068;51.990;5.926;2022-12-10T13:30:00;112.10;;;31.30;;
47335;SDS011;33068;51.990;5.926;2022-12-10T13:32:44;105.68;;;28.55;;
47335;SDS011;33068;51.990;5.926;2022-12-10T13:35:18;112.28;;;28.30;;
47335;SDS011;33068;51.990;5.926;2022-12-10T13:37:54;97.70;;;25.75;;
47335;SDS011;33068;51.990;5.926;2022-12-10T13:40:26;117.60;;;26.45;;
47335;SDS011;33068;51.990;5.926;2022-12-10T13:43:22;105.15;;;24.60;;
47335;SDS011;33068;51.990;5.926;2022-12-10T13:46:23;113.13;;;29.15;;
47335;SDS011;33068;51.990;5.926;2022-12-10T13:48:52;93.55;;;24.70;;
47335;SDS011;33068;51.990;5.926;2022-12-10T13:54:27;125.30;;;30.63;;
47335;SDS011;33068;51.990;5.926;2022-12-10T14:00:28;141.82;;;28.77;;
47335;SDS011;33068;51.990;5.926;2022-12-10T14:03:06;113.95;;;27.75;;
47335;SDS011;33068;51.990;5.926;2022-12-10T14:05:44;117.32;;;27.65;;
47335;SDS011;33068;51.990;5.926;2022-12-10T14:08:22;113.53;;;29.23;;
47335;SDS011;33068;51.990;5.926;2022-12-10T14:10:53;96.85;;;26.85;;
47335;SDS011;33068;51.990;5.926;2022-12-10T14:13:24;132.10;;;30.92;;
47335;SDS011;33068;51.990;5.926;2022-12-10T14:16:01;123.47;;;27.95;;
47335;SDS011;33068;51.990;5.926;2022-12-10T14:18:31;114.43;;;27.60;;
47335;SDS011;33068;51.990;5.926;2022-12-10T14:20:58;111.70;;;28.60;;
47335;SDS011;33068;51.990;5.926;2022-12-10T14:23:32;99.03;;;26.70;;
47335;SDS011;33068;51.990;5.926;2022-12-10T14:26:05;101.90;;;27.05;;
47335;SDS011;33068;51.990;5.926;2022-12-10T14:28:41;99.43;;;27.02;;
47335;SDS011;33068;51.990;5.926;2022-12-10T14:31:12;113.88;;;27.25;;
47335;SDS011;33068;51.990;5.926;2022-12-10T14:33:43;98.32;;;23.52;;
47335;SDS011;33068;51.990;5.926;2022-12-10T14:36:14;94.35;;;25.73;;
47335;SDS011;33068;51.990;5.926;2022-12-10T14:38:45;115.13;;;25.63;;
47335;SDS011;33068;51.990;5.926;2022-12-10T14:41:14;103.25;;;25.90;;
47335;SDS011;33068;51.990;5.926;2022-12-10T14:43:46;120.05;;;29.17;;
47335;SDS011;33068;51.990;5.926;2022-12-10T14:46:16;117.55;;;30.00;;
47335;SDS011;33068;51.990;5.926;2022-12-10T14:48:46;115.55;;;28.60;;
47335;SDS011;33068;51.990;5.926;2022-12-10T14:51:15;104.07;;;31.27;;
47335;SDS011;33068;51.990;5.926;2022-12-10T14:53:47;118.68;;;29.85;;
47335;SDS011;33068;51.990;5.926;2022-12-10T14:56:18;122.88;;;29.33;;
47335;SDS011;33068;51.990;5.926;2022-12-10T14:58:53;99.40;;;28.45;;
47335;SDS011;33068;51.990;5.926;2022-12-10T15:01:26;108.67;;;27.13;;